sensor_id;sensor_type;location;lat;lon;timestamp;P1;durP1;ratioP1;P2;durP2;ratioP2
62929;SDS011;49036;42.782;23.108;2022-11-15T00:00:46;153.93;;;42.00;;
62929;SDS011;49036;42.782;23.108;2022-11-15T00:03:14;166.40;;;43.15;;
62929;SDS011;49036;42.782;23.108;2022-11-15T00:05:41;188.00;;;49.80;;
62929;SDS011;49036;42.782;23.108;2022-11-15T00:08:07;174.07;;;49.58;;
62929;SDS011;49036;42.782;23.108;2022-11-15T00:10:33;176.95;;;49.25;;
62929;SDS011;49036;42.782;23.108;2022-11-15T00:12:58;167.98;;;45.85;;
62929;SDS011;49036;42.782;23.108;2022-11-15T00:15:24;187.52;;;49.55;;
62929;SDS011;49036;42.782;23.108;2022-11-15T00:17:49;175.27;;;49.15;;
62929;SDS011;49036;42.782;23.108;2022-11-15T00:20:16;182.38;;;47.08;;
62929;SDS011;49036;42.782;23.108;2022-11-15T00:22:42;182.13;;;46.08;;
62929;SDS011;49036;42.782;23.108;2022-11-15T00:25:08;188.65;;;51.65;;
62929;SDS011;49036;42.782;23.108;2022-11-15T00:27:33;162.23;;;44.78;;
62929;SDS011;49036;42.782;23.108;2022-11-15T00:30:00;175.55;;;46.70;;
62929;SDS011;49036;42.782;23.108;2022-11-15T00:32:25;180.43;;;48.25;;
62929;SDS011;49036;42.782;23.108;2022-11-15T00:34:51;154.48;;;45.75;;
62929;SDS011;49036;42.782;23.108;2022-11-15T00:37:16;178.95;;;48.40;;
62929;SDS011;49036;42.782;23.108;2022-11-15T00:39:42;183.80;;;49.60;;
62929;SDS011;49036;42.782;23.108;2022-11-15T00:42:07;182.88;;;51.00;;
62929;SDS011;49036;42.782;23.108;2022-11-15T00:44:33;152.07;;;43.92;;
62929;SDS011;49036;42.782;23.108;2022-11-15T00:46:58;126.57;;;40.53;;
62929;SDS011;49036;42.782;23.108;2022-11-15T00:49:23;124.90;;;39.17;;
62929;SDS011;49036;42.782;23.108;2022-11-15T00:51:49;115.68;;;36.03;;
62929;SDS011;49036;42.782;23.108;2022-11-15T00:54:14;137.20;;;40.25;;
62929;SDS011;49036;42.782;23.108;2022-11-15T00:56:40;150.38;;;39.53;;
62929;SDS011;49036;42.782;23.108;2022-11-15T00:59:05;130.55;;;39.67;;
62929;SDS011;49036;42.782;23.108;2022-11-15T01:01:31;164.15;;;46.38;;
62929;SDS011;49036;42.782;23.108;2022-11-15T01:03:56;170.20;;;44.33;;
62929;SDS011;49036;42.782;23.108;2022-11-15T01:06:22;156.57;;;46.58;;
62929;SDS011;49036;42.782;23.108;2022-11-15T01:08:48;151.73;;;44.80;;
62929;SDS011;49036;42.782;23.108;2022-11-15T01:11:13;154.15;;;46.30;;
62929;SDS011;49036;42.782;23.108;2022-11-15T01:13:39;138.40;;;47.13;;
62929;SDS011;49036;42.782;23.108;2022-11-15T01:16:08;152.00;;;48.13;;
62929;SDS011;49036;42.782;23.108;2022-11-15T01:18:38;127.90;;;42.90;;
62929;SDS011;49036;42.782;23.108;2022-11-15T01:21:05;122.95;;;39.88;;
62929;SDS011;49036;42.782;23.108;2022-11-15T01:23:34;118.25;;;35.83;;
62929;SDS011;49036;42.782;23.108;2022-11-15T01:26:00;108.60;;;34.30;;
62929;SDS011;49036;42.782;23.108;2022-11-15T01:28:35;116.43;;;36.22;;
62929;SDS011;49036;42.782;23.108;2022-11-15T01:31:03;120.68;;;36.75;;
62929;SDS011;49036;42.782;23.108;2022-11-15T01:33:33;143.55;;;38.20;;
62929;SDS011;49036;42.782;23.108;2022-11-15T01:36:05;165.05;;;40.22;;
62929;SDS011;49036;42.782;23.108;2022-11-15T01:38:32;168.38;;;42.17;;
62929;SDS011;49036;42.782;23.108;2022-11-15T01:40:58;171.57;;;47.42;;
62929;SDS011;49036;42.782;23.108;2022-11-15T01:43:25;165.40;;;41.55;;
62929;SDS011;49036;42.782;23.108;2022-11-15T01:48:49;160.38;;;38.13;;
62929;SDS011;49036;42.782;23.108;2022-11-15T01:51:17;133.82;;;39.33;;
62929;SDS011;49036;42.782;23.108;2022-11-15T01:53:45;120.18;;;34.22;;
62929;SDS011;49036;42.782;23.108;2022-11-15T01:56:15;130.75;;;39.67;;
62929;SDS011;49036;42.782;23.108;2022-11-15T01:58:44;134.68;;;37.20;;
62929;SDS011;49036;42.782;23.108;2022-11-15T02:01:11;118.85;;;35.38;;
62929;SDS011;49036;42.782;23.108;2022-11-15T02:03:40;85.60;;;31.25;;
62929;SDS011;49036;42.782;23.108;2022-11-15T02:06:11;69.88;;;29.42;;
62929;SDS011;49036;42.782;23.108;2022-11-15T02:08:37;94.13;;;29.33;;
62929;SDS011;49036;42.782;23.108;2022-11-15T02:11:04;113.45;;;33.75;;
62929;SDS011;49036;42.782;23.108;2022-11-15T02:13:32;113.28;;;36.30;;
62929;SDS011;49036;42.782;23.108;2022-11-15T02:18:32;135.32;;;36.63;;
62929;SDS011;49036;42.782;23.108;2022-11-15T02:29:51;182.98;;;40.97;;
62929;SDS011;49036;42.782;23.108;2022-11-15T02:32:14;166.32;;;43.47;;
62929;SDS011;49036;42.782;23.108;2022-11-15T02:34:45;167.27;;;39.53;;
62929;SDS011;49036;42.782;23.108;2022-11-15T02:37:27;145.10;;;38.55;;
62929;SDS011;49036;42.782;23.108;2022-11-15T02:43:12;126.80;;;35.50;;
62929;SDS011;49036;42.782;23.108;2022-11-15T02:46:14;124.47;;;36.72;;
62929;SDS011;49036;42.782;23.108;2022-11-15T02:48:48;117.78;;;37.00;;
62929;SDS011;49036;42.782;23.108;2022-11-15T02:51:14;124.22;;;37.17;;
62929;SDS011;49036;42.782;23.108;2022-11-15T02:53:41;141.60;;;36.72;;
62929;SDS011;49036;42.782;23.108;2022-11-15T02:56:07;137.10;;;35.95;;
62929;SDS011;49036;42.782;23.108;2022-11-15T03:04:33;112.25;;;34.33;;
62929;SDS011;49036;42.782;23.108;2022-11-15T03:07:13;96.68;;;30.77;;
62929;SDS011;49036;42.782;23.108;2022-11-15T03:09:42;114.63;;;33.03;;
62929;SDS011;49036;42.782;23.108;2022-11-15T03:12:16;99.38;;;29.13;;
62929;SDS011;49036;42.782;23.108;2022-11-15T03:15:02;98.25;;;30.13;;
62929;SDS011;49036;42.782;23.108;2022-11-15T03:17:36;102.50;;;29.55;;
62929;SDS011;49036;42.782;23.108;2022-11-15T03:20:11;134.02;;;33.00;;
62929;SDS011;49036;42.782;23.108;2022-11-15T03:22:42;166.75;;;36.90;;
62929;SDS011;49036;42.782;23.108;2022-11-15T03:25:10;143.18;;;40.95;;
62929;SDS011;49036;42.782;23.108;2022-11-15T03:27:46;130.85;;;36.72;;
62929;SDS011;49036;42.782;23.108;2022-11-15T03:30:14;125.10;;;35.28;;
62929;SDS011;49036;42.782;23.108;2022-11-15T03:32:49;119.75;;;35.88;;
62929;SDS011;49036;42.782;23.108;2022-11-15T03:35:19;94.80;;;33.55;;
62929;SDS011;49036;42.782;23.108;2022-11-15T03:41:24;211.82;;;40.38;;
62929;SDS011;49036;42.782;23.108;2022-11-15T03:46:13;502.77;;;63.70;;
62929;SDS011;49036;42.782;23.108;2022-11-15T03:49:25;343.50;;;54.63;;
62929;SDS011;49036;42.782;23.108;2022-11-15T03:54:01;369.35;;;52.33;;
62929;SDS011;49036;42.782;23.108;2022-11-15T03:56:28;497.83;;;63.72;;
62929;SDS011;49036;42.782;23.108;2022-11-15T03:58:54;252.90;;;50.83;;
62929;SDS011;49036;42.782;23.108;2022-11-15T04:01:19;225.45;;;50.88;;
62929;SDS011;49036;42.782;23.108;2022-11-15T04:03:45;262.02;;;42.10;;
62929;SDS011;49036;42.782;23.108;2022-11-15T04:06:11;395.23;;;48.67;;
62929;SDS011;49036;42.782;23.108;2022-11-15T04:08:36;369.00;;;55.45;;
62929;SDS011;49036;42.782;23.108;2022-11-15T04:11:02;401.30;;;55.53;;
62929;SDS011;49036;42.782;23.108;2022-11-15T04:13:27;442.15;;;68.85;;
62929;SDS011;49036;42.782;23.108;2022-11-15T04:15:53;467.63;;;67.35;;
62929;SDS011;49036;42.782;23.108;2022-11-15T04:18:18;401.20;;;58.65;;
62929;SDS011;49036;42.782;23.108;2022-11-15T04:20:44;406.30;;;59.25;;
62929;SDS011;49036;42.782;23.108;2022-11-15T04:23:27;423.30;;;58.95;;
62929;SDS011;49036;42.782;23.108;2022-11-15T04:26:28;370.77;;;56.63;;
62929;SDS011;49036;42.782;23.108;2022-11-15T04:28:54;228.38;;;48.45;;
62929;SDS011;49036;42.782;23.108;2022-11-15T04:31:38;255.27;;;51.75;;
62929;SDS011;49036;42.782;23.108;2022-11-15T04:34:03;283.45;;;58.47;;
62929;SDS011;49036;42.782;23.108;2022-11-15T04:36:30;348.42;;;61.88;;
62929;SDS011;49036;42.782;23.108;2022-11-15T04:39:14;253.48;;;48.60;;
62929;SDS011;49036;42.782;23.108;2022-11-15T04:41:39;221.43;;;46.50;;
62929;SDS011;49036;42.782;23.108;2022-11-15T04:44:05;208.15;;;44.00;;
62929;SDS011;49036;42.782;23.108;2022-11-15T04:46:30;189.35;;;45.85;;
62929;SDS011;49036;42.782;23.108;2022-11-15T04:48:56;266.67;;;48.75;;
62929;SDS011;49036;42.782;23.108;2022-11-15T04:51:21;377.35;;;54.88;;
62929;SDS011;49036;42.782;23.108;2022-11-15T04:53:47;307.00;;;48.88;;
62929;SDS011;49036;42.782;23.108;2022-11-15T04:56:12;366.17;;;49.17;;
62929;SDS011;49036;42.782;23.108;2022-11-15T04:58:38;439.98;;;54.85;;
62929;SDS011;49036;42.782;23.108;2022-11-15T05:01:10;264.75;;;41.72;;
62929;SDS011;49036;42.782;23.108;2022-11-15T05:03:37;341.13;;;46.83;;
62929;SDS011;49036;42.782;23.108;2022-11-15T05:06:21;294.55;;;43.83;;
62929;SDS011;49036;42.782;23.108;2022-11-15T05:08:47;303.25;;;45.97;;
62929;SDS011;49036;42.782;23.108;2022-11-15T05:11:12;325.02;;;46.63;;
62929;SDS011;49036;42.782;23.108;2022-11-15T05:13:38;335.23;;;52.33;;
62929;SDS011;49036;42.782;23.108;2022-11-15T05:16:03;379.52;;;56.28;;
62929;SDS011;49036;42.782;23.108;2022-11-15T05:18:29;295.15;;;46.35;;
62929;SDS011;49036;42.782;23.108;2022-11-15T05:20:54;313.75;;;44.38;;
62929;SDS011;49036;42.782;23.108;2022-11-15T05:23:20;328.77;;;44.83;;
62929;SDS011;49036;42.782;23.108;2022-11-15T05:25:45;306.00;;;40.28;;
62929;SDS011;49036;42.782;23.108;2022-11-15T05:28:11;272.15;;;39.65;;
62929;SDS011;49036;42.782;23.108;2022-11-15T05:30:36;285.85;;;43.20;;
62929;SDS011;49036;42.782;23.108;2022-11-15T05:33:02;247.82;;;35.78;;
62929;SDS011;49036;42.782;23.108;2022-11-15T05:35:36;290.65;;;38.90;;
62929;SDS011;49036;42.782;23.108;2022-11-15T05:38:05;281.23;;;38.78;;
62929;SDS011;49036;42.782;23.108;2022-11-15T05:40:30;240.45;;;33.80;;
62929;SDS011;49036;42.782;23.108;2022-11-15T05:42:57;221.18;;;32.30;;
62929;SDS011;49036;42.782;23.108;2022-11-15T05:45:27;243.80;;;32.75;;
62929;SDS011;49036;42.782;23.108;2022-11-15T05:47:53;197.57;;;31.40;;
62929;SDS011;49036;42.782;23.108;2022-11-15T05:50:21;240.82;;;40.63;;
62929;SDS011;49036;42.782;23.108;2022-11-15T05:52:47;220.57;;;31.45;;
62929;SDS011;49036;42.782;23.108;2022-11-15T05:55:13;141.18;;;27.77;;
62929;SDS011;49036;42.782;23.108;2022-11-15T05:57:39;185.13;;;33.20;;
62929;SDS011;49036;42.782;23.108;2022-11-15T06:00:04;203.23;;;32.05;;
62929;SDS011;49036;42.782;23.108;2022-11-15T06:04:56;170.30;;;29.50;;
62929;SDS011;49036;42.782;23.108;2022-11-15T06:07:21;180.90;;;32.03;;
62929;SDS011;49036;42.782;23.108;2022-11-15T06:09:47;180.77;;;27.35;;
62929;SDS011;49036;42.782;23.108;2022-11-15T06:12:13;148.63;;;26.83;;
62929;SDS011;49036;42.782;23.108;2022-11-15T06:14:38;133.07;;;23.52;;
62929;SDS011;49036;42.782;23.108;2022-11-15T06:17:04;178.07;;;31.20;;
62929;SDS011;49036;42.782;23.108;2022-11-15T06:19:29;200.40;;;29.48;;
62929;SDS011;49036;42.782;23.108;2022-11-15T06:21:58;179.45;;;29.25;;
62929;SDS011;49036;42.782;23.108;2022-11-15T06:24:26;179.70;;;23.95;;
62929;SDS011;49036;42.782;23.108;2022-11-15T06:26:52;186.85;;;31.17;;
62929;SDS011;49036;42.782;23.108;2022-11-15T06:29:18;175.52;;;28.00;;
62929;SDS011;49036;42.782;23.108;2022-11-15T06:31:43;175.05;;;27.27;;
62929;SDS011;49036;42.782;23.108;2022-11-15T06:34:09;103.43;;;17.92;;
62929;SDS011;49036;42.782;23.108;2022-11-15T06:36:35;141.38;;;23.05;;
62929;SDS011;49036;42.782;23.108;2022-11-15T06:39:01;118.18;;;22.60;;
62929;SDS011;49036;42.782;23.108;2022-11-15T06:41:30;134.38;;;20.80;;
62929;SDS011;49036;42.782;23.108;2022-11-15T06:43:56;77.20;;;15.13;;
62929;SDS011;49036;42.782;23.108;2022-11-15T06:48:47;62.38;;;15.15;;
62929;SDS011;49036;42.782;23.108;2022-11-15T06:51:15;44.22;;;13.98;;
62929;SDS011;49036;42.782;23.108;2022-11-15T06:53:40;64.18;;;17.42;;
62929;SDS011;49036;42.782;23.108;2022-11-15T06:56:06;90.20;;;16.52;;
62929;SDS011;49036;42.782;23.108;2022-11-15T06:58:32;62.90;;;16.83;;
62929;SDS011;49036;42.782;23.108;2022-11-15T07:01:02;82.65;;;16.33;;
62929;SDS011;49036;42.782;23.108;2022-11-15T07:03:36;82.57;;;17.88;;
62929;SDS011;49036;42.782;23.108;2022-11-15T07:06:04;67.63;;;16.48;;
62929;SDS011;49036;42.782;23.108;2022-11-15T07:08:30;76.78;;;17.80;;
62929;SDS011;49036;42.782;23.108;2022-11-15T07:10:59;83.00;;;17.02;;
62929;SDS011;49036;42.782;23.108;2022-11-15T07:13:27;93.80;;;19.17;;
62929;SDS011;49036;42.782;23.108;2022-11-15T07:15:54;79.35;;;18.20;;
62929;SDS011;49036;42.782;23.108;2022-11-15T07:18:20;94.22;;;18.48;;
62929;SDS011;49036;42.782;23.108;2022-11-15T07:20:45;100.45;;;18.92;;
62929;SDS011;49036;42.782;23.108;2022-11-15T07:23:11;85.35;;;21.58;;
62929;SDS011;49036;42.782;23.108;2022-11-15T07:25:37;81.00;;;17.48;;
62929;SDS011;49036;42.782;23.108;2022-11-15T07:28:02;113.88;;;18.58;;
62929;SDS011;49036;42.782;23.108;2022-11-15T07:30:28;95.18;;;20.77;;
62929;SDS011;49036;42.782;23.108;2022-11-15T07:32:57;72.97;;;19.23;;
62929;SDS011;49036;42.782;23.108;2022-11-15T07:35:25;125.10;;;22.52;;
62929;SDS011;49036;42.782;23.108;2022-11-15T07:37:55;105.63;;;22.80;;
62929;SDS011;49036;42.782;23.108;2022-11-15T07:40:25;114.60;;;21.33;;
62929;SDS011;49036;42.782;23.108;2022-11-15T07:42:52;147.88;;;22.65;;
62929;SDS011;49036;42.782;23.108;2022-11-15T07:45:17;104.20;;;20.08;;
62929;SDS011;49036;42.782;23.108;2022-11-15T07:47:46;101.85;;;20.38;;
62929;SDS011;49036;42.782;23.108;2022-11-15T07:50:15;148.48;;;28.92;;
62929;SDS011;49036;42.782;23.108;2022-11-15T07:52:41;107.13;;;26.45;;
62929;SDS011;49036;42.782;23.108;2022-11-15T07:55:07;124.10;;;25.92;;
62929;SDS011;49036;42.782;23.108;2022-11-15T07:57:33;155.63;;;28.25;;
62929;SDS011;49036;42.782;23.108;2022-11-15T07:59:59;97.45;;;21.67;;
62929;SDS011;49036;42.782;23.108;2022-11-15T08:02:24;126.45;;;25.98;;
62929;SDS011;49036;42.782;23.108;2022-11-15T08:04:49;150.85;;;25.25;;
62929;SDS011;49036;42.782;23.108;2022-11-15T08:07:15;183.68;;;29.05;;
62929;SDS011;49036;42.782;23.108;2022-11-15T08:09:40;150.45;;;27.95;;
62929;SDS011;49036;42.782;23.108;2022-11-15T08:12:06;148.02;;;26.65;;
62929;SDS011;49036;42.782;23.108;2022-11-15T08:14:32;167.65;;;27.50;;
62929;SDS011;49036;42.782;23.108;2022-11-15T08:16:57;148.48;;;28.40;;
62929;SDS011;49036;42.782;23.108;2022-11-15T08:19:23;171.32;;;25.95;;
62929;SDS011;49036;42.782;23.108;2022-11-15T08:21:48;146.93;;;24.20;;
62929;SDS011;49036;42.782;23.108;2022-11-15T08:24:14;130.48;;;22.88;;
62929;SDS011;49036;42.782;23.108;2022-11-15T08:26:39;138.02;;;24.27;;
62929;SDS011;49036;42.782;23.108;2022-11-15T08:29:05;138.40;;;21.35;;
62929;SDS011;49036;42.782;23.108;2022-11-15T08:31:33;190.98;;;27.58;;
62929;SDS011;49036;42.782;23.108;2022-11-15T08:34:00;219.27;;;32.03;;
62929;SDS011;49036;42.782;23.108;2022-11-15T08:36:25;155.82;;;27.60;;
62929;SDS011;49036;42.782;23.108;2022-11-15T08:38:51;167.07;;;26.20;;
62929;SDS011;49036;42.782;23.108;2022-11-15T08:41:22;153.85;;;25.70;;
62929;SDS011;49036;42.782;23.108;2022-11-15T08:43:51;152.90;;;26.15;;
62929;SDS011;49036;42.782;23.108;2022-11-15T08:46:17;148.23;;;24.67;;
62929;SDS011;49036;42.782;23.108;2022-11-15T08:48:43;136.98;;;21.85;;
62929;SDS011;49036;42.782;23.108;2022-11-15T08:51:08;202.40;;;28.77;;
62929;SDS011;49036;42.782;23.108;2022-11-15T08:53:34;176.00;;;29.13;;
62929;SDS011;49036;42.782;23.108;2022-11-15T08:56:00;171.02;;;29.90;;
62929;SDS011;49036;42.782;23.108;2022-11-15T08:58:26;182.38;;;26.58;;
62929;SDS011;49036;42.782;23.108;2022-11-15T09:00:52;186.07;;;27.63;;
62929;SDS011;49036;42.782;23.108;2022-11-15T09:03:17;217.18;;;27.27;;
62929;SDS011;49036;42.782;23.108;2022-11-15T09:05:43;141.75;;;26.67;;
62929;SDS011;49036;42.782;23.108;2022-11-15T09:08:08;140.32;;;30.60;;
62929;SDS011;49036;42.782;23.108;2022-11-15T09:10:34;140.13;;;28.33;;
62929;SDS011;49036;42.782;23.108;2022-11-15T09:12:59;142.68;;;26.77;;
62929;SDS011;49036;42.782;23.108;2022-11-15T09:15:25;176.57;;;31.13;;
62929;SDS011;49036;42.782;23.108;2022-11-15T09:17:50;100.35;;;24.27;;
62929;SDS011;49036;42.782;23.108;2022-11-15T09:20:16;150.80;;;29.45;;
62929;SDS011;49036;42.782;23.108;2022-11-15T09:22:41;151.60;;;25.23;;
62929;SDS011;49036;42.782;23.108;2022-11-15T09:25:07;118.95;;;26.70;;
62929;SDS011;49036;42.782;23.108;2022-11-15T09:27:34;171.02;;;28.13;;
62929;SDS011;49036;42.782;23.108;2022-11-15T09:30:00;162.82;;;30.00;;
62929;SDS011;49036;42.782;23.108;2022-11-15T09:32:28;132.25;;;28.20;;
62929;SDS011;49036;42.782;23.108;2022-11-15T09:34:55;111.38;;;24.88;;
62929;SDS011;49036;42.782;23.108;2022-11-15T09:37:20;132.27;;;28.80;;
62929;SDS011;49036;42.782;23.108;2022-11-15T09:39:46;101.70;;;25.17;;
62929;SDS011;49036;42.782;23.108;2022-11-15T09:42:23;109.45;;;24.55;;
62929;SDS011;49036;42.782;23.108;2022-11-15T10:04:20;109.53;;;25.92;;
62929;SDS011;49036;42.782;23.108;2022-11-15T10:12:18;103.30;;;25.67;;
62929;SDS011;49036;42.782;23.108;2022-11-15T10:14:45;88.20;;;29.73;;
62929;SDS011;49036;42.782;23.108;2022-11-15T10:17:17;75.47;;;23.20;;
62929;SDS011;49036;42.782;23.108;2022-11-15T10:27:38;77.55;;;24.90;;
62929;SDS011;49036;42.782;23.108;2022-11-15T10:30:15;72.68;;;25.65;;
62929;SDS011;49036;42.782;23.108;2022-11-15T10:32:43;70.88;;;22.88;;
62929;SDS011;49036;42.782;23.108;2022-11-15T10:38:07;64.93;;;26.15;;
62929;SDS011;49036;42.782;23.108;2022-11-15T10:40:34;76.57;;;29.27;;
62929;SDS011;49036;42.782;23.108;2022-11-15T10:43:05;67.95;;;25.08;;
62929;SDS011;49036;42.782;23.108;2022-11-15T10:45:44;65.30;;;25.00;;
62929;SDS011;49036;42.782;23.108;2022-11-15T10:50:39;60.55;;;26.35;;
62929;SDS011;49036;42.782;23.108;2022-11-15T10:56:11;60.55;;;25.02;;
62929;SDS011;49036;42.782;23.108;2022-11-15T11:01:11;68.28;;;26.65;;
62929;SDS011;49036;42.782;23.108;2022-11-15T11:04:06;63.47;;;26.85;;
62929;SDS011;49036;42.782;23.108;2022-11-15T11:06:46;71.85;;;29.58;;
62929;SDS011;49036;42.782;23.108;2022-11-15T11:09:22;66.53;;;26.63;;
62929;SDS011;49036;42.782;23.108;2022-11-15T11:11:57;64.65;;;26.48;;
62929;SDS011;49036;42.782;23.108;2022-11-15T11:19:51;64.20;;;27.25;;
62929;SDS011;49036;42.782;23.108;2022-11-15T11:22:34;58.67;;;24.02;;
62929;SDS011;49036;42.782;23.108;2022-11-15T11:39:24;60.20;;;25.70;;
62929;SDS011;49036;42.782;23.108;2022-11-15T11:44:45;56.33;;;25.00;;
62929;SDS011;49036;42.782;23.108;2022-11-15T11:47:32;46.85;;;21.30;;
62929;SDS011;49036;42.782;23.108;2022-11-15T11:50:17;56.65;;;26.40;;
62929;SDS011;49036;42.782;23.108;2022-11-15T11:52:52;60.78;;;28.65;;
62929;SDS011;49036;42.782;23.108;2022-11-15T11:55:21;67.20;;;29.23;;
62929;SDS011;49036;42.782;23.108;2022-11-15T12:00:49;73.82;;;29.23;;
62929;SDS011;49036;42.782;23.108;2022-11-15T12:03:30;69.53;;;31.00;;
62929;SDS011;49036;42.782;23.108;2022-11-15T12:06:14;64.45;;;28.95;;
62929;SDS011;49036;42.782;23.108;2022-11-15T12:09:17;72.25;;;32.78;;
62929;SDS011;49036;42.782;23.108;2022-11-15T12:11:56;70.93;;;32.08;;
62929;SDS011;49036;42.782;23.108;2022-11-15T12:14:28;71.63;;;31.50;;
62929;SDS011;49036;42.782;23.108;2022-11-15T12:16:59;71.57;;;32.05;;
62929;SDS011;49036;42.782;23.108;2022-11-15T12:19:25;71.57;;;31.52;;
62929;SDS011;49036;42.782;23.108;2022-11-15T12:21:56;74.35;;;31.38;;
62929;SDS011;49036;42.782;23.108;2022-11-15T12:24:43;77.93;;;34.08;;
62929;SDS011;49036;42.782;23.108;2022-11-15T12:27:18;81.65;;;36.20;;
62929;SDS011;49036;42.782;23.108;2022-11-15T12:30:14;78.97;;;35.47;;
62929;SDS011;49036;42.782;23.108;2022-11-15T12:35:43;80.65;;;34.88;;
62929;SDS011;49036;42.782;23.108;2022-11-15T12:38:11;70.82;;;34.40;;
62929;SDS011;49036;42.782;23.108;2022-11-15T12:40:38;82.00;;;35.00;;
62929;SDS011;49036;42.782;23.108;2022-11-15T12:43:38;71.32;;;33.67;;
62929;SDS011;49036;42.782;23.108;2022-11-15T12:46:05;70.65;;;32.25;;
62929;SDS011;49036;42.782;23.108;2022-11-15T12:51:02;80.03;;;36.33;;
62929;SDS011;49036;42.782;23.108;2022-11-15T12:53:32;88.35;;;37.65;;
62929;SDS011;49036;42.782;23.108;2022-11-15T12:58:38;98.45;;;42.53;;
62929;SDS011;49036;42.782;23.108;2022-11-15T13:04:29;101.22;;;43.05;;
62929;SDS011;49036;42.782;23.108;2022-11-15T13:06:53;103.80;;;43.55;;
62929;SDS011;49036;42.782;23.108;2022-11-15T13:20:44;109.70;;;46.92;;
62929;SDS011;49036;42.782;23.108;2022-11-15T13:22:48;107.97;;;46.22;;
62929;SDS011;49036;42.782;23.108;2022-11-15T13:30:40;103.85;;;45.90;;
62929;SDS011;49036;42.782;23.108;2022-11-15T13:35:46;111.07;;;46.20;;
62929;SDS011;49036;42.782;23.108;2022-11-15T13:38:58;107.30;;;49.97;;
62929;SDS011;49036;42.782;23.108;2022-11-15T13:41:13;109.40;;;47.25;;
62929;SDS011;49036;42.782;23.108;2022-11-15T13:43:39;107.43;;;46.78;;
62929;SDS011;49036;42.782;23.108;2022-11-15T13:46:17;99.47;;;45.78;;
62929;SDS011;49036;42.782;23.108;2022-11-15T13:48:45;119.07;;;48.40;;
62929;SDS011;49036;42.782;23.108;2022-11-15T13:51:18;106.45;;;47.97;;
62929;SDS011;49036;42.782;23.108;2022-11-15T13:54:12;103.65;;;44.83;;
62929;SDS011;49036;42.782;23.108;2022-11-15T13:56:52;114.57;;;45.97;;
62929;SDS011;49036;42.782;23.108;2022-11-15T13:59:28;102.93;;;42.10;;
62929;SDS011;49036;42.782;23.108;2022-11-15T14:01:56;101.28;;;41.40;;
62929;SDS011;49036;42.782;23.108;2022-11-15T14:04:26;107.43;;;43.58;;
62929;SDS011;49036;42.782;23.108;2022-11-15T14:06:59;104.18;;;43.08;;
62929;SDS011;49036;42.782;23.108;2022-11-15T14:12:00;104.00;;;45.45;;
62929;SDS011;49036;42.782;23.108;2022-11-15T14:14:28;97.53;;;45.05;;
62929;SDS011;49036;42.782;23.108;2022-11-15T14:16:59;95.78;;;42.67;;
62929;SDS011;49036;42.782;23.108;2022-11-15T14:24:46;102.75;;;43.22;;
62929;SDS011;49036;42.782;23.108;2022-11-15T14:27:30;112.25;;;43.78;;
62929;SDS011;49036;42.782;23.108;2022-11-15T14:29:56;99.88;;;43.40;;
62929;SDS011;49036;42.782;23.108;2022-11-15T14:32:25;106.10;;;44.25;;
62929;SDS011;49036;42.782;23.108;2022-11-15T14:34:57;102.38;;;43.60;;
62929;SDS011;49036;42.782;23.108;2022-11-15T14:37:25;102.00;;;43.35;;
62929;SDS011;49036;42.782;23.108;2022-11-15T14:39:59;107.45;;;45.60;;
62929;SDS011;49036;42.782;23.108;2022-11-15T14:42:26;112.13;;;47.60;;
62929;SDS011;49036;42.782;23.108;2022-11-15T14:44:51;103.78;;;44.88;;
62929;SDS011;49036;42.782;23.108;2022-11-15T14:47:17;110.78;;;43.50;;
62929;SDS011;49036;42.782;23.108;2022-11-15T14:49:43;106.45;;;43.72;;
62929;SDS011;49036;42.782;23.108;2022-11-15T14:52:22;113.53;;;45.20;;
62929;SDS011;49036;42.782;23.108;2022-11-15T14:54:53;100.70;;;42.70;;
62929;SDS011;49036;42.782;23.108;2022-11-15T14:57:22;104.28;;;42.33;;
62929;SDS011;49036;42.782;23.108;2022-11-15T14:59:48;87.35;;;38.95;;
62929;SDS011;49036;42.782;23.108;2022-11-15T15:02:21;90.80;;;39.10;;
62929;SDS011;49036;42.782;23.108;2022-11-15T15:04:49;85.95;;;38.88;;
62929;SDS011;49036;42.782;23.108;2022-11-15T15:07:15;92.97;;;40.53;;
62929;SDS011;49036;42.782;23.108;2022-11-15T15:09:41;88.97;;;37.50;;
62929;SDS011;49036;42.782;23.108;2022-11-15T15:12:12;102.45;;;37.85;;
62929;SDS011;49036;42.782;23.108;2022-11-15T15:14:41;101.03;;;39.25;;
62929;SDS011;49036;42.782;23.108;2022-11-15T15:17:07;97.40;;;39.38;;
62929;SDS011;49036;42.782;23.108;2022-11-15T15:19:32;100.88;;;39.72;;
62929;SDS011;49036;42.782;23.108;2022-11-15T15:21:58;97.80;;;41.05;;
62929;SDS011;49036;42.782;23.108;2022-11-15T15:24:23;96.70;;;39.92;;
62929;SDS011;49036;42.782;23.108;2022-11-15T15:26:48;99.90;;;40.30;;
62929;SDS011;49036;42.782;23.108;2022-11-15T15:29:14;92.15;;;40.03;;
62929;SDS011;49036;42.782;23.108;2022-11-15T15:31:40;99.60;;;39.20;;
62929;SDS011;49036;42.782;23.108;2022-11-15T15:34:05;112.93;;;47.60;;
62929;SDS011;49036;42.782;23.108;2022-11-15T15:36:31;123.28;;;48.17;;
62929;SDS011;49036;42.782;23.108;2022-11-15T15:38:56;127.45;;;51.78;;
62929;SDS011;49036;42.782;23.108;2022-11-15T15:41:22;151.90;;;59.17;;
62929;SDS011;49036;42.782;23.108;2022-11-15T15:43:48;122.30;;;52.97;;
62929;SDS011;49036;42.782;23.108;2022-11-15T15:46:14;143.80;;;58.90;;
62929;SDS011;49036;42.782;23.108;2022-11-15T15:48:41;124.05;;;51.00;;
62929;SDS011;49036;42.782;23.108;2022-11-15T15:51:07;123.47;;;50.20;;
62929;SDS011;49036;42.782;23.108;2022-11-15T15:53:33;143.32;;;60.97;;
62929;SDS011;49036;42.782;23.108;2022-11-15T15:55:59;157.02;;;63.40;;
62929;SDS011;49036;42.782;23.108;2022-11-15T15:58:24;165.18;;;63.45;;
62929;SDS011;49036;42.782;23.108;2022-11-15T16:00:50;147.50;;;58.90;;
62929;SDS011;49036;42.782;23.108;2022-11-15T16:03:16;154.98;;;60.42;;
62929;SDS011;49036;42.782;23.108;2022-11-15T16:05:42;138.80;;;56.80;;
62929;SDS011;49036;42.782;23.108;2022-11-15T16:08:17;131.93;;;47.58;;
62929;SDS011;49036;42.782;23.108;2022-11-15T16:10:44;169.07;;;59.67;;
62929;SDS011;49036;42.782;23.108;2022-11-15T16:13:10;158.48;;;54.90;;
62929;SDS011;49036;42.782;23.108;2022-11-15T16:15:35;284.90;;;95.07;;
62929;SDS011;49036;42.782;23.108;2022-11-15T16:18:01;198.50;;;70.13;;
62929;SDS011;49036;42.782;23.108;2022-11-15T16:20:34;191.55;;;71.63;;
62929;SDS011;49036;42.782;23.108;2022-11-15T16:23:14;140.40;;;57.00;;
62929;SDS011;49036;42.782;23.108;2022-11-15T16:25:42;116.88;;;48.47;;
62929;SDS011;49036;42.782;23.108;2022-11-15T16:28:21;150.10;;;58.10;;
62929;SDS011;49036;42.782;23.108;2022-11-15T16:30:58;122.20;;;48.97;;
62929;SDS011;49036;42.782;23.108;2022-11-15T16:33:25;148.60;;;54.15;;